KSVN/SVN METAR and TAF weather

Enter ICAO airport designator
Station Type Date Time Source
KSVN METAR 2021/09/24 05:56 UTC NOAA

KSVN 240556Z AUTO 00000KT 10SM CLR 16/14 A2997 RMK AO2 SLP152 T01600137 10219 20159 57003 $


Station Type Date Time Source
KSVN Decoded METAR 2021/09/24 05:56 UTC NOAA

Hunter U. S. Army Airfield , GA, United States (KSVN) 32-01N 081-09W
Sep 24, 2021 - 01:56 AM EDT / 2021.09.24 0556 UTC
Wind: Calm:0
Visibility: 10 mile(s):0
Sky conditions: clear
Temperature: 60.8 F (16.0 C)
Dew Point: 56.7 F (13.7 C)
Relative Humidity: 86%
Pressure (altimeter): 29.97 in. Hg (1014 hPa)
Pressure tendency: 0.01 inches (0.3 hPa) lower than three hours ago
ob: KSVN 240556Z AUTO 00000KT 10SM CLR 16/14 A2997 RMK AO2 SLP152 T01600137 10219 20159 57003
cycle: 6

Station Type Date Time Source
KSVN TAF 2021/09/24 04:57 UTC NOAA

TAF TAF KSVN 240400Z 2404/2510 01006KT 9999 SKC QNH2995INS TX25/2420Z TN17/2410Z

Example: see airport list